Observations for NORWICH WEA CNTRE, United Kingdom (EGSH)

EGSH 242020Z 21016KT 9000 RA BKN011 13/12 Q1005 TEMPO BKN008
EGSH 241950Z 21015KT 9999 RA BKN011 13/12 Q1005 TEMPO 7000 RA BKN009
EGSH 241920Z 21014KT 9999 -DZ BKN011 14/13 Q1006 TEMPO 4000 DZ BKN006   
EGSH 241850Z 21012KT 9999 SCT009 BKN013 13/12 Q1006 TEMPO 7000 RA BKN008
EGSH 241820Z 22011KT 180V240 6000 -DZ SCT008 BKN015 12/11 Q1007 TEMPO 4000 RA BKN008
EGSH 241750Z 21007KT 6000 -RA SCT004 BKN008 12/11 Q1007 TEMPO 4000 RA BKN004
EGSH 241720Z 17004KT 140V200 5000 -RA SCT004 BKN014 12/11 Q1008 RERA TEMPO 3000 RA BKN004   
EGSH 241650Z VRB02KT 3000 RA FEW003 SCT006 BKN017 12/11 Q1009 TEMPO 7000 NSW BKN006 
EGSH 241620Z VRB02KT 3500 -RA BKN017 12/11 Q1009 TEMPO 7000 RA BKN012   
EGSH 241550Z VRB02KT 5000 -RA FEW010 BKN022 12/11 Q1010 TEMPO 4000 RA BKN010
EGSH 241520Z 18005KT 150V230 8000 -RA FEW007 BKN025 12/11 Q1010 RESHRA TEMPO RA 
EGSH 241450Z 21007KT 8000 SHRA SCT012 BKN020 12/11 Q1011 TEMPO NSW  
EGSH 241420Z 20005KT 180V240 8000 SHRA SCT012 BKN020 12/10 Q1012 BECMG -RA  
EGSH 241350Z 23008KT 8000 SHRA SCT012 BKN020 12/10 Q1012 TEMPO NSW BKN012   
EGSH 241320Z 23008KT 9000 -SHRA FEW013 SCT035 12/10 Q1013 NOSIG 
EGSH 241250Z 23010KT 9000 VCSH FEW013 SCT035 12/09 Q1013 TEMPO RA   
EGSH 241220Z 22011KT 200V270 9999 FEW031 14/08 Q1013 NOSIG  
EGSH 241150Z 24010KT 220V280 9999 FEW025 14/08 Q1014 NOSIG  
EGSH 241120Z 24011KT 9999 FEW027 13/07 Q1014 NOSIG  
EGSH 241050Z 25009KT 220V280 9999 -SHRA FEW029 13/08 Q1014 TEMPO RA 
EGSH 241020Z 24010KT 9999 FEW029 13/08 Q1014 NOSIG  
EGSH 240950Z 25011KT 220V290 9999 -RA FEW029 13/07 Q1014 NOSIG  
EGSH 240920Z 25009KT 220V280 9999 FEW018 13/08 Q1014 NOSIG  
EGSH 240850Z 26010KT 9999 FEW018 13/08 Q1014 NOSIG  
EGSH 240820Z 26010KT 9999 SCT017 13/09 Q1014 NOSIG  
EGSH 240750Z 25011KT 220V290 9999 SCT017 12/09 Q1014 NOSIG  
EGSH 240720Z 25011KT 9999 FEW018 12/09 Q1014 NOSIG  
EGSH 240650Z 25011KT 9999 SCT015 SCT032 12/09 Q1013 NOSIG   
EGSH 240620Z 25010KT 230V290 9999 -RA SCT018 BKN032 11/09 Q1013 TEMPO BKN012
EGSH 240550Z 25009KT 9999 BKN018 12/09 Q1013 TEMPO BKN014   
EGSH 240520Z 24008KT 9999 FEW016 11/09 Q1012 TEMPO BKN012   
EGSH 240450Z AUTO 24009KT 9999 FEW016/// 11/09 Q1012
EGSH 240420Z AUTO 24009KT 9999 FEW016/// 11/09 Q1012
EGSH 240350Z AUTO 24012KT 9999 SCT016/// SCT024/// BKN034/// 11/09 Q1012
EGSH 240320Z AUTO 25013KT 9999 FEW018/// BKN023/// OVC029/// 12/09 Q1012
EGSH 240250Z AUTO 25010KT 9999 BKN018/// OVC023/// 12/09 Q1012  
EGSH 240220Z AUTO 25013KT 9999 BKN019/// 12/09 Q1012
EGSH 240150Z AUTO 25015KT 9999 BKN020/// 12/09 Q1012
EGSH 240120Z AUTO 25016KT 9999 OVC019/// 12/09 Q1012
EGSH 240050Z AUTO 25014KT 9999 BKN020/// 12/08 Q1012
EGSH 240020Z AUTO 24014KT 210V280 9999 BKN022/// 12/08 Q1012
EGSH 232350Z AUTO 24018KT 9999 OVC022/// 12/08 Q1012
EGSH 232320Z AUTO 24015KT 9999 OVC024/// 12/08 Q1012
EGSH 232250Z AUTO 24014KT 9999 OVC024/// 12/08 Q1012
EGSH 232220Z AUTO 25013KT 9999 BKN027/// 12/08 Q1012
EGSH 232150Z AUTO 24011KT 210V280 9999 NCD 12/07 Q1012  
EGSH 232120Z AUTO 24013KT 9999 NCD 12/07 Q1012  
EGSH 232050Z AUTO 24013KT 200V270 9999 NCD 12/07 Q1013  
EGSH 232020Z 22012KT 9999 -RA SCT012 12/08 Q1013 TEMPO 7000 RA BKN010   
EGSH 231950Z 23012KT CAVOK 13/07 Q1013 NOSIG